Time;durP1;ratioP1;P1;durP2;ratioP2;P2;SDS_P1;SDS_P2;PMS_P1;PMS_P2;Temp;Humidity;BMP_temperature;BMP_pressure;BME280_temperature;BME280_humidity;BME280_pressure;Samples;Min_cycle;Max_cycle;Signal;HPM_P1;HPM_P2
2023/10/30 00:01:07;;;;;;;11.50;3.38;;;;;;;11.78;100.00;99708.06;5124124;28;20040;-62
2023/10/30 00:03:55;;;;;;;10.07;3.17;;;;;;;11.79;100.00;99704.22;5111740;28;20043;-59
2023/10/30 00:06:43;;;;;;;8.65;2.83;;;;;;;11.80;100.00;99707.75;5109988;28;20509;-65
2023/10/30 00:09:31;;;;;;;11.63;3.10;;;;;;;11.81;100.00;99721.13;5112579;28;20047;-64
2023/10/30 00:12:19;;;;;;;7.85;2.95;;;;;;;11.76;100.00;99734.03;5117494;27;20519;-64
2023/10/30 00:15:08;;;;;;;12.18;3.53;;;;;;;11.75;100.00;99727.78;5098612;28;20430;-65
2023/10/30 00:17:56;;;;;;;11.00;3.20;;;;;;;11.76;100.00;99732.13;5111137;28;20051;-65
2023/10/30 00:20:44;;;;;;;15.18;3.30;;;;;;;11.77;100.00;99738.41;5098411;28;20384;-65
2023/10/30 00:23:32;;;;;;;10.93;3.42;;;;;;;11.77;100.00;99744.66;5093190;28;20070;-65
2023/10/30 00:26:20;;;;;;;8.45;2.40;;;;;;;11.79;100.00;99752.56;5078191;28;20095;-65
2023/10/30 00:29:09;;;;;;;12.10;3.58;;;;;;;11.78;100.00;99753.66;5085413;28;20046;-65
2023/10/30 00:31:59;;;;;;;9.30;2.70;;;;;;;11.77;100.00;99755.56;5083426;28;20096;-65
2023/10/30 00:34:47;;;;;;;10.07;3.00;;;;;;;11.76;100.00;99764.88;5119231;27;20195;-65
2023/10/30 00:37:35;;;;;;;8.77;2.78;;;;;;;11.77;100.00;99761.03;5132210;27;20550;-65
2023/10/30 00:40:24;;;;;;;10.88;2.95;;;;;;;11.76;100.00;99762.16;5098353;28;20047;-65
2023/10/30 00:43:12;;;;;;;10.35;2.95;;;;;;;11.77;100.00;99765.69;5098803;27;20489;-65
2023/10/30 00:46:00;;;;;;;13.50;3.45;;;;;;;11.77;100.00;99771.94;5133927;27;20119;-66
2023/10/30 00:48:48;;;;;;;8.02;2.60;;;;;;;11.73;100.00;99782.63;5143019;27;20066;-65
2023/10/30 00:51:36;;;;;;;11.15;3.33;;;;;;;11.74;100.00;99772.56;5094746;28;20128;-65
2023/10/30 00:54:24;;;;;;;8.82;2.80;;;;;;;11.72;100.00;99778.31;5106618;27;20115;-66
2023/10/30 00:57:12;;;;;;;11.07;3.38;;;;;;;11.72;100.00;99783.75;5122320;27;20066;-65
2023/10/30 01:00:00;;;;;;;9.30;2.78;;;;;;;11.70;100.00;99785.97;5117791;27;20052;-65
2023/10/30 01:02:49;;;;;;;9.07;3.15;;;;;;;11.70;100.00;99796.09;5107236;28;20048;-65
2023/10/30 01:05:37;;;;;;;10.88;2.85;;;;;;;11.69;100.00;99803.47;5108712;27;20138;-65
2023/10/30 01:08:28;;;;;;;15.13;3.40;;;;;;;11.67;100.00;99804.88;5134081;27;20089;-65
2023/10/30 01:11:16;;;;;;;11.00;3.13;;;;;;;11.67;100.00;99813.06;5081084;28;20039;-65
2023/10/30 01:14:04;;;;;;;11.90;3.05;;;;;;;11.67;100.00;99813.06;5080763;28;20047;-65
2023/10/30 01:16:52;;;;;;;11.05;3.00;;;;;;;11.68;100.00;99817.41;5097441;28;20051;-65
2023/10/30 01:19:43;;;;;;;12.10;3.20;;;;;;;11.70;100.00;99820.66;5099208;28;20039;-65
2023/10/30 01:22:31;;;;;;;9.00;2.72;;;;;;;11.69;100.00;99824.50;5096294;28;20178;-65
2023/10/30 01:25:19;;;;;;;10.38;2.78;;;;;;;11.70;100.00;99826.09;5086654;27;20406;-65
2023/10/30 01:28:07;;;;;;;9.85;2.95;;;;;;;11.72;100.00;99830.16;5085009;28;20052;-65
2023/10/30 01:30:55;;;;;;;8.90;2.67;;;;;;;11.73;100.00;99814.59;5076807;28;20052;-64
2023/10/30 01:33:43;;;;;;;8.15;2.53;;;;;;;11.73;100.00;99833.69;5082995;28;20104;-64
2023/10/30 01:36:31;;;;;;;10.52;2.88;;;;;;;11.73;100.00;99820.84;5107305;27;20054;-65
2023/10/30 01:39:19;;;;;;;10.65;2.88;;;;;;;11.73;100.00;99814.59;5118247;27;20410;-64
2023/10/30 01:42:07;;;;;;;10.98;2.85;;;;;;;11.71;100.00;99812.19;5142364;27;20289;-64
2023/10/30 01:44:57;;;;;;;9.45;2.80;;;;;;;11.73;100.00;99811.84;5097236;28;20056;-65
2023/10/30 01:47:45;;;;;;;11.82;3.33;;;;;;;11.73;100.00;99809.13;5063939;28;20102;-65
2023/10/30 01:50:33;;;;;;;10.07;3.10;;;;;;;11.71;100.00;99808.63;5076960;28;20123;-65
2023/10/30 01:53:22;;;;;;;13.93;3.58;;;;;;;11.71;100.00;99814.06;5086341;28;20459;-65
2023/10/30 01:56:11;;;;;;;8.38;2.78;;;;;;;11.73;100.00;99811.84;5095970;28;20055;-65
2023/10/30 01:58:59;;;;;;;9.70;2.90;;;;;;;11.71;100.00;99811.34;5082887;28;20081;-65
2023/10/30 02:01:47;;;;;;;14.73;3.15;;;;;;;11.71;100.00;99811.34;5084331;28;20047;-65
2023/10/30 02:04:36;;;;;;;9.18;2.53;;;;;;;11.70;100.00;99821.44;5085418;28;20052;-66
2023/10/30 02:07:25;;;;;;;8.93;2.78;;;;;;;11.68;100.00;99815.47;5078891;28;20048;-65
2023/10/30 02:10:13;;;;;;;12.50;3.28;;;;;;;11.68;100.00;99822.88;5099504;28;20044;-65
2023/10/30 02:13:05;;;;;;;16.42;3.63;;;;;;;11.68;100.00;99826.41;5079437;28;20044;-65
2023/10/30 02:15:53;;;;;;;11.07;3.33;;;;;;;11.68;100.00;99831.06;5111538;28;20514;-64
2023/10/30 02:18:41;;;;;;;10.63;2.90;;;;;;;11.69;100.00;99832.69;5126294;27;20047;-64
2023/10/30 02:21:29;;;;;;;9.00;2.53;;;;;;;11.69;100.00;99824.50;5146181;27;20040;-64
2023/10/30 02:24:17;;;;;;;9.75;2.90;;;;;;;11.68;100.00;99817.41;5121059;27;20058;-65
2023/10/30 02:27:06;;;;;;;10.43;2.75;;;;;;;11.68;100.00;99820.13;5103085;28;20055;-65
2023/10/30 02:29:54;;;;;;;11.07;2.55;;;;;;;11.68;100.00;99809.22;5098128;28;20039;-65
2023/10/30 02:32:44;;;;;;;10.70;2.67;;;;;;;11.68;100.00;99815.47;5116390;28;20036;-64
2023/10/30 02:35:32;;;;;;;9.00;2.50;;;;;;;11.66;100.00;99812.25;5065146;28;20040;-65
2023/10/30 02:38:20;;;;;;;9.25;3.03;;;;;;;11.66;100.00;99819.63;5079262;27;20040;-65
2023/10/30 02:41:09;;;;;;;11.27;2.92;;;;;;;11.68;100.00;99815.47;5136739;27;20035;-65
2023/10/30 02:43:57;;;;;;;9.98;2.80;;;;;;;11.67;100.00;99811.16;5136626;27;20051;-64
2023/10/30 02:46:46;;;;;;;8.60;2.88;;;;;;;11.69;100.00;99808.13;5106090;27;20176;-66
2023/10/30 02:49:35;;;;;;;11.70;3.13;;;;;;;11.66;100.00;99808.72;5111547;27;20075;-65
2023/10/30 02:52:23;;;;;;;10.10;2.80;;;;;;;11.65;100.00;99818.81;5114510;28;20488;-65
2023/10/30 02:55:11;;;;;;;9.20;3.03;;;;;;;11.65;100.00;99804.38;5101724;28;20490;-64
2023/10/30 02:57:59;;;;;;;9.40;2.50;;;;;;;11.65;100.00;99801.66;5099960;28;20415;-64
2023/10/30 03:00:48;;;;;;;9.88;2.65;;;;;;;11.64;100.00;99810.91;5078403;28;20122;-64
2023/10/30 03:03:36;;;;;;;10.70;2.97;;;;;;;11.65;100.00;99807.91;5101632;28;20132;-65
2023/10/30 03:06:25;;;;;;;10.75;3.08;;;;;;;11.65;100.00;99812.56;5099687;28;20372;-65
2023/10/30 03:09:13;;;;;;;7.95;2.78;;;;;;;11.64;100.00;99811.75;5115105;28;20035;-65
2023/10/30 03:12:01;;;;;;;10.45;2.97;;;;;;;11.65;100.00;99815.28;5098153;27;20437;-65
2023/10/30 03:14:49;;;;;;;12.73;3.08;;;;;;;11.64;100.00;99817.22;5135815;27;20220;-65
2023/10/30 03:17:38;;;;;;;13.05;3.13;;;;;;;11.63;100.00;99814.78;5113477;28;20377;-64
2023/10/30 03:20:26;;;;;;;12.68;2.95;;;;;;;11.63;100.00;99812.03;5095923;28;20128;-65
2023/10/30 03:23:14;;;;;;;10.73;2.90;;;;;;;11.64;100.00;99827.28;5100154;28;20139;-64
2023/10/30 03:26:02;;;;;;;8.40;2.60;;;;;;;11.64;100.00;99835.47;5112522;28;20505;-65
2023/10/30 03:28:50;;;;;;;8.85;2.92;;;;;;;11.63;100.00;99831.16;5071588;28;20115;-64
2023/10/30 03:31:38;;;;;;;8.07;2.88;;;;;;;11.61;100.00;99839.63;5099070;28;20059;-65
2023/10/30 03:34:26;;;;;;;8.88;2.70;;;;;;;11.60;100.00;99838.00;5099570;28;20126;-64
2023/10/30 03:37:14;;;;;;;10.77;2.63;;;;;;;11.61;100.00;99844.28;5107473;28;20051;-66
2023/10/30 03:40:03;;;;;;;8.20;2.47;;;;;;;11.61;100.00;99836.09;5114548;28;20077;-65
2023/10/30 03:42:51;;;;;;;12.50;2.92;;;;;;;11.59;100.00;99832.84;5100259;28;20373;-65
2023/10/30 03:45:39;;;;;;;13.68;3.20;;;;;;;11.58;100.00;99832.03;5096692;28;20126;-64
2023/10/30 03:48:27;;;;;;;9.23;3.08;;;;;;;11.58;100.00;99828.50;5114975;28;20051;-65
2023/10/30 03:51:15;;;;;;;8.57;2.58;;;;;;;11.58;100.00;99828.50;5099362;28;20450;-65
2023/10/30 03:54:03;;;;;;;9.95;2.90;;;;;;;11.57;100.00;99826.88;5113925;28;20432;-65
2023/10/30 03:56:51;;;;;;;10.80;2.72;;;;;;;11.57;100.00;99827.69;5096560;28;20042;-65
2023/10/30 03:59:39;;;;;;;12.05;2.72;;;;;;;11.56;100.00;99819.81;5114276;28;20518;-64
2023/10/30 04:02:29;;;;;;;10.90;2.78;;;;;;;11.56;100.00;99836.19;5098058;28;20044;-65
2023/10/30 04:05:17;;;;;;;11.27;2.50;;;;;;;11.54;100.00;99832.94;5114669;28;20598;-65
2023/10/30 04:08:05;;;;;;;8.82;2.42;;;;;;;11.54;100.00;99831.00;5084081;28;20180;-65
2023/10/30 04:10:53;;;;;;;9.95;3.10;;;;;;;11.54;100.00;99833.72;5099881;28;20410;-64
2023/10/30 04:13:41;;;;;;;11.70;2.70;;;;;;;11.53;100.00;99826.69;5113779;28;20120;-63
2023/10/30 04:16:29;;;;;;;7.95;2.50;;;;;;;11.54;100.00;99822.03;5081465;28;20043;-62
2023/10/30 04:19:18;;;;;;;8.60;2.33;;;;;;;11.51;100.00;99823.44;5123436;28;20296;-59
2023/10/30 04:22:05;;;;;;;13.07;2.58;;;;;;;11.49;100.00;99826.44;5117795;28;20036;-65
2023/10/30 04:24:53;;;;;;;6.47;2.33;;;;;;;11.48;100.00;99819.38;5088382;28;20048;-64
2023/10/30 04:27:41;;;;;;;10.10;2.85;;;;;;;11.49;100.00;99821.00;5099869;28;20039;-61
2023/10/30 04:30:29;;;;;;;10.60;2.97;;;;;;;11.46;100.00;99824.31;5114490;28;20130;-59
2023/10/30 04:33:18;;;;;;;8.57;3.13;;;;;;;11.45;100.00;99825.44;5101548;28;20079;-64
2023/10/30 04:36:06;;;;;;;8.05;2.60;;;;;;;11.44;100.00;99820.28;5077266;28;20044;-65
2023/10/30 04:38:54;;;;;;;7.50;2.50;;;;;;;11.41;100.00;99832.59;5098051;28;20050;-66
2023/10/30 04:41:42;;;;;;;7.68;2.67;;;;;;;11.42;100.00;99825.22;5096620;28;20047;-65
2023/10/30 04:44:30;;;;;;;8.13;2.53;;;;;;;11.42;100.00;99827.94;5094114;28;20128;-65
2023/10/30 04:47:20;;;;;;;11.30;3.38;;;;;;;11.41;100.00;99827.13;5071405;28;20075;-64
2023/10/30 04:50:10;;;;;;;12.50;2.97;;;;;;;11.41;100.00;99827.13;5077428;28;20135;-65
2023/10/30 04:52:58;;;;;;;13.75;3.25;;;;;;;11.41;100.00;99834.50;5103243;28;20083;-65
2023/10/30 04:55:50;;;;;;;10.55;2.63;;;;;;;11.41;100.00;99839.97;5112149;28;20460;-65
2023/10/30 04:58:38;;;;;;;10.85;2.72;;;;;;;11.41;100.00;99835.31;5113872;27;20064;-64
2023/10/30 05:01:26;;;;;;;10.20;2.72;;;;;;;11.42;100.00;99833.41;5104508;28;20101;-65
2023/10/30 05:04:17;;;;;;;12.80;3.08;;;;;;;11.39;100.00;99831.28;5113059;28;20524;-65
2023/10/30 05:07:05;;;;;;;8.60;2.88;;;;;;;11.38;100.00;99829.66;5107151;28;20047;-65
2023/10/30 05:09:53;;;;;;;12.38;2.75;;;;;;;11.38;100.00;99835.13;5092024;28;20057;-64
2023/10/30 05:12:41;;;;;;;11.60;3.38;;;;;;;11.38;100.00;99829.66;5111505;28;20052;-65
2023/10/30 05:15:30;;;;;;;11.80;2.72;;;;;;;11.31;100.00;99830.03;5097714;28;20185;-65
2023/10/30 05:18:21;;;;;;;10.57;3.08;;;;;;;11.28;100.00;99833.34;5110942;28;20043;-65
2023/10/30 05:21:09;;;;;;;10.93;3.03;;;;;;;11.27;100.00;99823.56;5111984;28;20092;-66
2023/10/30 05:23:58;;;;;;;11.07;2.72;;;;;;;11.26;100.00;99821.94;5098423;28;20411;-65
2023/10/30 05:26:46;;;;;;;9.63;3.03;;;;;;;11.23;100.00;99828.81;5110361;28;20453;-65
2023/10/30 05:29:34;;;;;;;15.68;3.50;;;;;;;11.22;100.00;99834.53;5110376;28;20089;-65
2023/10/30 05:32:22;;;;;;;12.40;2.70;;;;;;;11.23;100.00;99836.16;5112557;28;20043;-64
2023/10/30 05:35:10;;;;;;;9.63;2.80;;;;;;;11.23;100.00;99820.63;5112575;28;20525;-65
2023/10/30 05:37:58;;;;;;;14.63;3.17;;;;;;;11.23;100.00;99822.50;5116369;28;20048;-67
2023/10/30 05:40:47;;;;;;;9.65;2.85;;;;;;;11.20;100.00;99817.66;5111204;28;20122;-66
2023/10/30 05:43:35;;;;;;;13.07;3.20;;;;;;;11.16;100.00;99811.16;5118551;28;20052;-66
2023/10/30 05:46:23;;;;;;;11.32;3.20;;;;;;;11.13;100.00;99812.59;5105543;28;20055;-66
2023/10/30 05:49:11;;;;;;;11.55;3.20;;;;;;;11.13;100.00;99819.94;5124762;28;20116;-66
2023/10/30 05:51:59;;;;;;;7.60;2.80;;;;;;;11.12;100.00;99821.06;5116834;28;20055;-66
2023/10/30 05:54:48;;;;;;;10.07;2.80;;;;;;;11.09;100.00;99823.28;5116789;28;20501;-66
2023/10/30 05:57:37;;;;;;;10.00;2.75;;;;;;;11.08;100.00;99827.09;5115751;28;20055;-66
2023/10/30 06:00:26;;;;;;;14.55;3.20;;;;;;;11.07;100.00;99825.50;5097605;28;20396;-66
2023/10/30 06:03:14;;;;;;;10.15;3.10;;;;;;;11.05;100.00;99819.53;5113471;28;20036;-65
2023/10/30 06:06:04;;;;;;;11.05;2.72;;;;;;;11.04;100.00;99820.63;4386549;28;10000618;-66
2023/10/30 06:08:52;;;;;;;11.60;3.00;;;;;;;11.04;100.00;99819.81;5091130;28;20194;-66
2023/10/30 06:11:40;;;;;;;11.82;3.90;;;;;;;11.00;100.00;99825.06;5095831;28;20047;-66
2023/10/30 06:14:28;;;;;;;10.98;3.15;;;;;;;11.02;100.00;99833.75;5108250;28;20058;-65
2023/10/30 06:17:16;;;;;;;11.40;3.60;;;;;;;11.00;100.00;99829.69;5091093;28;20222;-66
2023/10/30 06:20:06;;;;;;;11.10;2.92;;;;;;;10.98;100.00;99834.63;5097690;28;20043;-66
2023/10/30 06:22:57;;;;;;;10.43;3.15;;;;;;;10.96;100.00;99834.91;5085019;28;20046;-66
2023/10/30 06:25:45;;;;;;;8.95;2.90;;;;;;;10.94;100.00;99831.66;5065350;28;20085;-65
2023/10/30 06:28:33;;;;;;;12.63;3.08;;;;;;;10.94;100.00;99837.13;5107444;28;20518;-65
2023/10/30 06:31:21;;;;;;;14.48;2.92;;;;;;;10.95;100.00;99836.03;5078484;28;20032;-66
2023/10/30 06:34:10;;;;;;;12.48;3.20;;;;;;;10.98;100.00;99842.81;5111904;28;20476;-65
2023/10/30 06:36:59;;;;;;;11.63;3.47;;;;;;;10.99;100.00;99856.16;5081040;28;20062;-66
2023/10/30 06:39:47;;;;;;;9.50;3.05;;;;;;;10.97;100.00;99863.00;5067083;28;20056;-66
2023/10/30 06:42:38;;;;;;;14.77;3.42;;;;;;;10.93;100.00;99860.03;5092191;28;20055;-65
2023/10/30 06:45:26;;;;;;;11.82;3.42;;;;;;;10.87;100.00;99859.31;5107277;28;20056;-65
2023/10/30 06:48:14;;;;;;;13.32;3.42;;;;;;;10.84;100.00;99868.06;5094499;28;20047;-66
2023/10/30 06:51:03;;;;;;;9.98;3.28;;;;;;;10.83;100.00;99869.16;5095279;28;20104;-65
2023/10/30 06:53:51;;;;;;;10.68;3.15;;;;;;;10.86;100.00;99873.22;5090418;28;20048;-66
2023/10/30 06:56:39;;;;;;;12.13;3.30;;;;;;;10.87;100.00;99885.72;5112651;28;20503;-65
2023/10/30 06:59:30;;;;;;;13.60;3.20;;;;;;;10.88;100.00;99881.91;5089878;28;20055;-66
2023/10/30 07:02:18;;;;;;;11.82;3.40;;;;;;;10.87;100.00;99885.72;5096828;28;20050;-65
2023/10/30 07:05:07;;;;;;;12.77;3.20;;;;;;;10.86;100.00;99886.84;5105458;28;20043;-65
2023/10/30 07:07:55;;;;;;;12.68;3.33;;;;;;;10.84;100.00;99880.88;5077368;28;20175;-66
2023/10/30 07:10:43;;;;;;;14.68;4.00;;;;;;;10.86;100.00;99884.13;5099577;28;20040;-65
2023/10/30 07:13:32;;;;;;;16.08;3.80;;;;;;;10.83;100.00;99880.06;5096272;28;20078;-66
2023/10/30 07:16:19;;;;;;;12.55;3.13;;;;;;;10.82;100.00;99874.91;5112564;28;20044;-65
2023/10/30 07:19:09;;;;;;;19.10;3.63;;;;;;;10.82;100.00;99883.91;5097110;28;20044;-65
2023/10/30 07:21:58;;;;;;;11.80;3.33;;;;;;;10.86;100.00;99886.84;5125438;27;20126;-66
2023/10/30 07:24:46;;;;;;;15.82;3.88;;;;;;;10.89;100.00;99886.25;5089862;28;20648;-64
2023/10/30 07:27:35;;;;;;;13.82;3.72;;;;;;;10.92;100.00;99880.22;5086645;28;20085;-66
2023/10/30 07:30:24;;;;;;;12.73;3.78;;;;;;;10.94;100.00;99888.91;5113430;28;20051;-66
2023/10/30 07:33:12;;;;;;;13.65;3.40;;;;;;;10.93;100.00;99895.47;5099796;28;20043;-66
2023/10/30 07:36:03;;;;;;;11.80;3.45;;;;;;;10.96;100.00;99897.59;5099140;28;20047;-66
2023/10/30 07:38:51;;;;;;;13.40;3.72;;;;;;;10.95;100.00;99896.00;5115735;28;20048;-65
2023/10/30 07:41:39;;;;;;;11.55;3.13;;;;;;;10.98;100.00;99903.56;5099178;28;20039;-65
2023/10/30 07:44:30;;;;;;;11.07;3.20;;;;;;;11.00;100.00;99906.00;5113084;28;20047;-65
2023/10/30 07:47:18;;;;;;;13.07;3.55;;;;;;;11.00;100.00;99915.00;5113713;28;20148;-66
2023/10/30 07:50:20;;;;;;;12.52;3.72;;;;;;;11.03;100.00;99917.13;5113567;28;20195;-65
2023/10/30 07:53:11;;;;;;;14.77;3.92;;;;;;;11.05;100.00;99923.09;5101479;28;20055;-65
2023/10/30 07:55:59;;;;;;;14.52;3.17;;;;;;;11.04;100.00;99924.22;5099941;28;20047;-65
2023/10/30 07:58:47;;;;;;;15.68;3.65;;;;;;;11.05;100.00;99925.84;5094793;28;20044;-65
2023/10/30 08:01:36;;;;;;;10.90;3.65;;;;;;;11.09;100.00;99918.69;5098678;28;20044;-66
2023/10/30 08:04:24;;;;;;;12.68;4.50;;;;;;;11.12;100.00;99922.75;5114461;28;20456;-68
2023/10/30 08:07:12;;;;;;;14.13;4.22;;;;;;;11.19;100.00;99927.84;5100710;27;20073;-68
2023/10/30 08:10:00;;;;;;;11.43;3.25;;;;;;;11.22;100.00;99925.31;5071735;28;20044;-68
2023/10/30 08:12:48;;;;;;;14.13;3.50;;;;;;;11.27;100.00;99922.53;5100172;28;20408;-68
2023/10/30 08:15:36;;;;;;;12.65;3.65;;;;;;;11.27;100.00;99916.25;5089487;28;20514;-67
2023/10/30 08:18:25;;;;;;;13.13;3.28;;;;;;;11.25;100.00;99913.81;5126805;27;20081;-68
2023/10/30 08:21:14;;;;;;;11.18;3.75;;;;;;;11.29;100.00;99914.06;5106734;27;20035;-68
2023/10/30 08:24:02;;;;;;;10.10;3.55;;;;;;;11.31;100.00;99917.31;5120854;27;20151;-68
2023/10/30 08:26:51;;;;;;;14.43;4.20;;;;;;;11.35;100.00;99921.03;5110923;28;20591;-68
2023/10/30 08:29:39;;;;;;;10.93;3.05;;;;;;;11.39;100.00;99922.09;5114127;28;20063;-68
2023/10/30 08:32:27;;;;;;;11.95;3.20;;;;;;;11.43;100.00;99925.03;5114451;28;20044;-68
2023/10/30 08:35:15;;;;;;;13.40;3.60;;;;;;;11.42;100.00;99929.66;5092594;27;20118;-68
2023/10/30 08:38:03;;;;;;;13.80;3.75;;;;;;;11.42;100.00;99924.22;5112778;27;20066;-68
2023/10/30 08:40:51;;;;;;;13.13;3.10;;;;;;;11.42;100.00;99932.41;5079689;28;20070;-68
2023/10/30 08:43:39;;;;;;;10.10;3.30;;;;;;;11.43;100.00;99931.31;5080471;28;20426;-69
2023/10/30 08:46:28;;;;;;;11.57;3.60;;;;;;;11.43;100.00;99936.75;5102868;27;20085;-67
2023/10/30 08:49:16;;;;;;;11.90;4.00;;;;;;;11.44;100.00;99932.91;5137101;27;20106;-64
2023/10/30 08:52:04;;;;;;;14.10;3.90;;;;;;;11.46;100.00;99921.72;5109953;28;20051;-66
2023/10/30 08:54:52;;;;;;;14.48;3.80;;;;;;;11.47;100.00;99915.16;5113588;28;20172;-67
2023/10/30 08:57:41;;;;;;;11.98;3.53;;;;;;;11.50;100.00;99926.28;5118407;28;20043;-67
2023/10/30 09:00:29;;;;;;;13.65;3.80;;;;;;;11.51;100.00;99922.44;5118698;28;20057;-67
2023/10/30 09:03:17;;;;;;;13.80;3.90;;;;;;;11.55;100.00;99935.50;5105158;28;20173;-68
2023/10/30 09:06:06;;;;;;;12.13;3.58;;;;;;;11.57;100.00;99930.53;5118478;27;20043;-69
2023/10/30 09:08:54;;;;;;;14.50;4.15;;;;;;;11.62;100.00;99934.03;5077082;28;20135;-67
2023/10/30 09:11:44;;;;;;;13.32;3.67;;;;;;;11.64;100.00;99929.09;5093861;28;20044;-67
2023/10/30 09:14:32;;;;;;;17.10;4.20;;;;;;;11.69;100.00;99922.75;5091660;28;20051;-67
2023/10/30 09:17:20;;;;;;;11.85;3.03;;;;;;;11.70;100.00;99936.06;5108542;28;20124;-68
2023/10/30 09:20:12;;;;;;;10.88;3.83;;;;;;;11.71;100.00;99936.88;5096592;28;20126;-68
2023/10/30 09:23:01;;;;;;;9.95;3.35;;;;;;;11.74;100.00;99944.47;5109774;28;20442;-66
2023/10/30 09:25:49;;;;;;;15.10;4.22;;;;;;;11.79;100.00;99933.47;5113568;28;20139;-67
2023/10/30 09:28:37;;;;;;;13.00;3.30;;;;;;;11.79;100.00;99922.56;5122535;27;20051;-68
2023/10/30 09:31:30;;;;;;;11.35;3.75;;;;;;;11.82;100.00;99919.22;5102685;27;20043;-65
2023/10/30 09:34:18;;;;;;;12.32;3.55;;;;;;;11.84;100.00;99922.47;5081022;27;20047;-65
2023/10/30 09:37:06;;;;;;;16.02;3.78;;;;;;;11.84;100.00;99910.75;5098683;28;20067;-65
2023/10/30 09:39:54;;;;;;;15.35;3.53;;;;;;;11.84;100.00;99908.81;5112313;28;20566;-66
2023/10/30 09:42:52;;;;;;;10.75;3.17;;;;;;;11.86;100.00;99901.16;5080817;28;20186;-65
2023/10/30 09:45:41;;;;;;;13.48;3.05;;;;;;;11.88;100.00;99915.34;5112010;28;20069;-64
2023/10/30 09:48:32;;;;;;;11.48;3.30;;;;;;;11.90;100.00;99913.09;5131771;28;20051;-64
2023/10/30 09:51:21;;;;;;;15.55;3.20;;;;;;;11.92;100.00;99916.34;5132224;28;20477;-65
2023/10/30 09:54:09;;;;;;;14.50;3.65;;;;;;;11.90;100.00;99907.66;5107785;28;20047;-64
2023/10/30 09:57:01;;;;;;;11.88;3.33;;;;;;;11.89;100.00;99911.50;5112247;28;20158;-64
2023/10/30 09:59:53;;;;;;;12.32;3.60;;;;;;;11.89;100.00;99908.78;5097650;28;20437;-65
2023/10/30 10:02:42;;;;;;;13.27;3.30;;;;;;;11.91;100.00;99903.03;5110228;28;20044;-64
2023/10/30 10:05:30;;;;;;;15.45;3.47;;;;;;;11.93;100.00;99896.16;5097700;28;20052;-64
2023/10/30 10:08:18;;;;;;;13.93;3.70;;;;;;;11.97;100.00;99895.53;5092566;28;20581;-64
2023/10/30 10:11:06;;;;;;;13.77;3.58;;;;;;;11.98;100.00;99883.50;5096298;28;20044;-63
2023/10/30 10:13:56;;;;;;;12.45;3.30;;;;;;;12.00;100.00;99884.84;5112475;28;20044;-62
2023/10/30 10:16:53;;;;;;;11.25;3.38;;;;;;;12.01;100.00;99880.19;5113781;28;20058;-63
2023/10/30 10:19:46;;;;;;;13.18;3.08;;;;;;;12.02;100.00;99885.31;5113050;28;20058;-62
2023/10/30 10:22:34;;;;;;;10.18;3.17;;;;;;;12.04;100.00;99885.03;5112427;28;20141;-63
2023/10/30 10:25:23;;;;;;;11.00;2.75;;;;;;;12.04;100.00;99885.03;5097312;28;20079;-64
2023/10/30 10:28:11;;;;;;;14.65;3.80;;;;;;;12.06;100.00;99882.81;5100774;28;20140;-63
2023/10/30 10:30:59;;;;;;;8.00;2.90;;;;;;;12.08;100.00;99886.06;5109858;28;20047;-64
2023/10/30 10:33:48;;;;;;;10.15;3.08;;;;;;;12.10;100.00;99881.13;5111308;28;20075;-63
2023/10/30 10:36:40;;;;;;;13.10;2.90;;;;;;;12.15;100.00;99883.75;5110138;27;20406;-64
2023/10/30 10:39:49;;;;;;;9.93;3.05;;;;;;;12.21;100.00;99882.53;5142115;27;20042;-64
2023/10/30 10:42:39;;;;;;;8.38;2.75;;;;;;;12.22;100.00;99877.88;5110068;27;20096;-66
2023/10/30 10:45:27;;;;;;;9.93;3.15;;;;;;;12.25;100.00;99877.28;5118126;28;20035;-63
2023/10/30 10:48:16;;;;;;;7.65;2.53;;;;;;;12.27;100.00;99875.88;5095745;27;20043;-64
2023/10/30 10:51:04;;;;;;;9.07;2.63;;;;;;;12.29;100.00;99870.91;5137998;27;20064;-63
2023/10/30 10:53:54;;;;;;;9.60;3.08;;;;;;;12.30;100.00;99860.78;5137979;27;20092;-63
2023/10/30 10:56:45;;;;;;;9.52;3.25;;;;;;;12.33;100.00;99865.66;5107574;28;20047;-64
2023/10/30 10:59:35;;;;;;;11.30;3.38;;;;;;;12.36;100.00;99871.31;5100914;28;20074;-64
2023/10/30 11:02:30;;;;;;;8.68;2.70;;;;;;;12.39;100.00;99874.53;5074318;28;20047;-63
2023/10/30 11:05:18;;;;;;;9.38;2.88;;;;;;;12.41;100.00;99867.69;5116248;28;20168;-65
2023/10/30 11:08:35;;;;;;;8.13;2.95;;;;;;;12.43;100.00;99870.09;5102251;27;20518;-65
2023/10/30 11:11:34;;;;;;;9.82;3.05;;;;;;;12.43;100.00;99853.72;5106627;27;20058;-66
2023/10/30 11:14:47;;;;;;;8.77;2.80;;;;;;;12.44;100.00;99856.16;5117357;27;20226;-65
2023/10/30 11:17:36;;;;;;;10.30;2.85;;;;;;;12.45;100.00;99854.22;5096962;28;20051;-65
2023/10/30 11:20:27;;;;;;;8.52;2.90;;;;;;;12.44;100.00;99852.59;5114835;28;20496;-65
2023/10/30 11:23:46;;;;;;;7.88;2.83;;;;;;;12.44;100.00;99847.94;5100327;28;20048;-65
2023/10/30 11:26:38;;;;;;;9.73;2.92;;;;;;;12.46;100.00;99842.16;5114851;27;20066;-64
2023/10/30 11:29:56;;;;;;;11.70;2.95;;;;;;;12.47;100.00;99839.13;5100100;28;20055;-64
2023/10/30 11:32:44;;;;;;;4.93;2.30;;;;;;;12.49;100.00;99838.84;5101315;28;20043;-65
2023/10/30 11:35:33;;;;;;;9.30;3.33;;;;;;;12.50;100.00;99826.78;5103785;27;20130;-65
2023/10/30 11:38:21;;;;;;;9.75;2.88;;;;;;;12.53;100.00;99816.06;5134673;27;20130;-65
2023/10/30 11:41:09;;;;;;;8.63;2.63;;;;;;;12.53;100.00;99807.03;5120751;27;20072;-64
2023/10/30 11:44:17;;;;;;;8.13;2.70;;;;;;;12.57;100.00;99810.78;5135453;27;20074;-65
2023/10/30 11:47:11;;;;;;;8.88;2.70;;;;;;;12.58;100.00;99806.97;5119978;27;20085;-65
2023/10/30 11:49:59;;;;;;;8.15;2.90;;;;;;;12.60;100.00;99809.38;5114930;28;20077;-64
2023/10/30 11:52:48;;;;;;;9.75;2.92;;;;;;;12.62;100.00;99807.13;5073224;28;20060;-65
2023/10/30 11:55:40;;;;;;;10.02;3.00;;;;;;;12.64;100.00;99799.44;5079761;28;20426;-65
2023/10/30 11:58:28;;;;;;;8.57;3.13;;;;;;;12.66;100.00;99798.03;5092498;28;20048;-65
2023/10/30 12:01:17;;;;;;;6.68;2.42;;;;;;;12.65;100.00;99796.41;5095011;28;20495;-65
2023/10/30 12:04:05;;;;;;;7.00;2.70;;;;;;;12.66;100.00;99795.28;5095115;28;20044;-66
2023/10/30 12:06:55;;;;;;;6.32;2.38;;;;;;;12.66;100.00;99787.09;5080385;28;20036;-65
2023/10/30 12:09:43;;;;;;;5.07;2.10;;;;;;;12.67;100.00;99782.44;5094713;28;20138;-66
2023/10/30 12:12:32;;;;;;;8.82;2.38;;;;;;;12.66;100.00;99789.81;5078934;28;20051;-65
2023/10/30 12:15:20;;;;;;;5.13;2.00;;;;;;;12.66;100.00;99781.63;5078950;28;20059;-65
2023/10/30 12:18:08;;;;;;;9.77;2.72;;;;;;;12.70;100.00;99776.34;5081106;28;20048;-65
2023/10/30 12:20:57;;;;;;;8.00;2.50;;;;;;;12.71;100.00;99770.56;5080708;28;20040;-65
2023/10/30 12:23:49;;;;;;;6.65;2.33;;;;;;;12.71;100.00;99769.78;5078819;28;20519;-65
2023/10/30 12:26:41;;;;;;;7.40;2.10;;;;;;;12.71;100.00;99756.91;5079480;28;20130;-65
2023/10/30 12:29:29;;;;;;;4.75;2.20;;;;;;;12.71;100.00;99756.91;4374110;28;10000735;-65
2023/10/30 12:32:17;;;;;;;8.02;3.40;;;;;;;12.86;100.00;99757.66;5063253;28;20048;-65
2023/10/30 12:35:23;;;;;;;9.80;3.60;;;;;;;12.99;100.00;99746.69;5092032;28;20048;-65
2023/10/30 12:38:15;;;;;;;10.70;2.80;;;;;;;13.07;100.00;99742.41;5075323;28;20151;-64
2023/10/30 12:41:06;;;;;;;6.07;2.38;;;;;;;12.95;100.00;99740.22;5054443;28;20055;-63
2023/10/30 12:43:56;;;;;;;7.03;2.13;;;;;;;12.82;100.00;99735.63;5053903;28;20109;-63
2023/10/30 12:46:45;;;;;;;6.20;1.95;;;;;;;12.78;100.00;99735.44;5069350;28;20158;-64
2023/10/30 12:49:34;;;;;;;8.20;2.80;;;;;;;12.86;100.00;99722.13;5060563;28;20056;-63
2023/10/30 12:52:23;;;;;;;7.35;2.58;;;;;;;12.86;100.00;99725.66;5088111;28;20099;-63
2023/10/30 12:55:12;;;;;;;6.90;2.47;;;;;;;12.85;100.00;99715.06;5089212;28;20152;-63
2023/10/30 12:58:00;;;;;;;5.85;2.05;;;;;;;12.83;100.00;99711.81;5075886;28;20089;-64
2023/10/30 13:00:48;;;;;;;7.45;2.33;;;;;;;12.82;100.00;99711.03;5075066;28;20125;-64